Wayana — PE5639 — position and weather

sailwx.info

Track history (hours):
 
Tides and Currents Weather Stations Pressure Air Temp Water Temp Dewpoint Dewpoint Depression Visibility Wind Speed Wind Dir Waves Ship Positions

Wayana

Last reported at 2018-Apr-22 08:33 UTC. Time now 2018-Apr-22 22:00 UTC.
Position N 38°23' W 009°07'.

Length 12 m.

Type: Sailing vessel. MMSI: 244020670.

Date/timePositionNaut miles runAvg speedWind from/ knotsBaromVisibWave heightAir tempDewpointWater temp
2018-Apr-22 08:33N 38°23' W 009°07'1 5.5
2018-Apr-22 08:21N 38°22' W 009°07'2 5.4
2018-Apr-22 08:00N 38°20' W 009°07'3 5.5
2018-Apr-22 07:28N 38°17' W 009°08'3 5.8
2018-Apr-22 07:00N 38°14' W 009°09'3 5.4
2018-Apr-22 06:30N 38°12' W 009°09'2 4.9
2018-Apr-22 06:00N 38°09' W 009°10'2 4.9
2018-Apr-22 05:30N 38°07' W 009°10'3 5.4
2018-Apr-22 05:00N 38°04' W 009°10'3 5.3
2018-Apr-22 04:30N 38°01' W 009°09'3 5.4
2018-Apr-22 04:00N 37°59' W 009°09'3 5.2
2018-Apr-22 03:30N 37°56' W 009°08'2 5.0
2018-Apr-22 03:00N 37°54' W 009°08'3 5.1
2018-Apr-22 02:28N 37°51' W 009°07'2 4.9
2018-Apr-22 02:00N 37°49' W 009°06'2 4.9
2018-Apr-22 01:30N 37°46' W 009°06'2 4.8
2018-Apr-22 01:00N 37°44' W 009°05'2 4.9
2018-Apr-22 00:30N 37°42' W 009°04'2 4.8
2018-Apr-22 00:00N 37°39' W 009°04'41 3.9
2018-Apr-21 13:23N 37°02' W 008°40'2 5.8
2018-Apr-21 13:00N 37°03' W 008°38'3 5.3
2018-Apr-21 12:29N 37°05' W 008°35'4 0.8
2018-Apr-21 07:58N 37°07' W 008°32'0 0.0
2018-Apr-21 07:28N 37°07' W 008°32'0 0.0
2018-Apr-21 06:52N 37°07' W 008°32'0 0.0
2018-Apr-21 06:28N 37°07' W 008°32'0 0.0
2018-Apr-21 05:58N 37°07' W 008°32'0 0.0
2018-Apr-21 05:28N 37°07' W 008°32'0 0.0
2018-Apr-21 04:52N 37°07' W 008°32'0 0.0
2018-Apr-21 04:28N 37°07' W 008°32'0 0.0
2018-Apr-21 03:58N 37°07' W 008°32'0 0.0
2018-Apr-21 03:26N 37°07' W 008°32'0 0.0
2018-Apr-21 02:56N 37°07' W 008°32'0 0.0
2018-Apr-21 02:20N 37°07' W 008°32'0 0.0
2018-Apr-21 01:44N 37°07' W 008°32'0 0.0
2018-Apr-21 01:26N 37°07' W 008°32'0 0.0
2018-Apr-21 00:56N 37°07' W 008°32'0 0.0
2018-Apr-21 00:26N 37°07' W 008°32'0 0.0
2018-Apr-20 19:26N 37°07' W 008°32'0 0.0
2018-Apr-20 17:05N 37°07' W 008°32'0 0.0
2018-Apr-20 16:50N 37°07' W 008°32'0 0.0
2018-Apr-20 16:26N 37°07' W 008°32'0 0.0
2018-Apr-20 15:56N 37°07' W 008°32'0 0.0
2018-Apr-20 15:14N 37°07' W 008°32'0 0.0
2018-Apr-20 14:56N 37°07' W 008°32'0 0.0
2018-Apr-20 14:26N 37°07' W 008°32'0 0.0
2018-Apr-20 08:56N 37°07' W 008°32'0 0.0
2018-Apr-20 08:29N 37°07' W 008°32'0 0.0
2018-Apr-20 06:26N 37°07' W 008°32'0 0.0
2018-Apr-20 05:17N 37°07' W 008°32'0 0.0
2018-Apr-20 04:38N 37°07' W 008°32'0 0.0
2018-Apr-20 02:23N 37°07' W 008°32'0 0.0
2018-Apr-20 01:50N 37°07' W 008°32'0 0.0
2018-Apr-20 01:26N 37°07' W 008°32'0 0.0
2018-Apr-20 00:47N 37°07' W 008°32'0 0.0
2018-Apr-19 12:35N 37°07' W 008°32'0 0.0
2018-Apr-19 09:02N 37°07' W 008°32'0 0.0
2018-Apr-19 03:54N 37°07' W 008°32'0 0.0
2018-Apr-19 03:30N 37°07' W 008°32'0 0.0
2018-Apr-18 23:24N 37°07' W 008°32'  
Track history (hours):
 
Tides and Currents Weather Stations Pressure Air Temp Water Temp Dewpoint Dewpoint Depression Visibility Wind Speed Wind Dir Waves Ship Positions

Wayana

Last reported at 2018-Apr-22 08:33 UTC. Time now 2018-Apr-22 22:00 UTC.
Position N 38°23' W 009°07'.

Length 12 m.

Type: Sailing vessel. MMSI: 244020670.

Date/timePositionNaut miles runAvg speedWind from/ knotsBaromVisibWave heightAir tempDewpointWater temp
2018-Apr-22 08:33N 38°23' W 009°07'1 5.5
2018-Apr-22 08:21N 38°22' W 009°07'2 5.4
2018-Apr-22 08:00N 38°20' W 009°07'3 5.5
2018-Apr-22 07:28N 38°17' W 009°08'3 5.8
2018-Apr-22 07:00N 38°14' W 009°09'3 5.4
2018-Apr-22 06:30N 38°12' W 009°09'2 4.9
2018-Apr-22 06:00N 38°09' W 009°10'2 4.9
2018-Apr-22 05:30N 38°07' W 009°10'3 5.4
2018-Apr-22 05:00N 38°04' W 009°10'3 5.3
2018-Apr-22 04:30N 38°01' W 009°09'3 5.4
2018-Apr-22 04:00N 37°59' W 009°09'3 5.2
2018-Apr-22 03:30N 37°56' W 009°08'2 5.0
2018-Apr-22 03:00N 37°54' W 009°08'3 5.1
2018-Apr-22 02:28N 37°51' W 009°07'2 4.9
2018-Apr-22 02:00N 37°49' W 009°06'2 4.9
2018-Apr-22 01:30N 37°46' W 009°06'2 4.8
2018-Apr-22 01:00N 37°44' W 009°05'2 4.9
2018-Apr-22 00:30N 37°42' W 009°04'2 4.8
2018-Apr-22 00:00N 37°39' W 009°04'41 3.9
2018-Apr-21 13:23N 37°02' W 008°40'2 5.8
2018-Apr-21 13:00N 37°03' W 008°38'3 5.3
2018-Apr-21 12:29N 37°05' W 008°35'4 0.8
2018-Apr-21 07:58N 37°07' W 008°32'0 0.0
2018-Apr-21 07:28N 37°07' W 008°32'0 0.0
2018-Apr-21 06:52N 37°07' W 008°32'0 0.0
2018-Apr-21 06:28N 37°07' W 008°32'0 0.0
2018-Apr-21 05:58N 37°07' W 008°32'0 0.0
2018-Apr-21 05:28N 37°07' W 008°32'0 0.0
2018-Apr-21 04:52N 37°07' W 008°32'0 0.0
2018-Apr-21 04:28N 37°07' W 008°32'0 0.0
2018-Apr-21 03:58N 37°07' W 008°32'0 0.0
2018-Apr-21 03:26N 37°07' W 008°32'0 0.0
2018-Apr-21 02:56N 37°07' W 008°32'0 0.0
2018-Apr-21 02:20N 37°07' W 008°32'0 0.0
2018-Apr-21 01:44N 37°07' W 008°32'0 0.0
2018-Apr-21 01:26N 37°07' W 008°32'0 0.0
2018-Apr-21 00:56N 37°07' W 008°32'0 0.0
2018-Apr-21 00:26N 37°07' W 008°32'0 0.0
2018-Apr-20 19:26N 37°07' W 008°32'0 0.0
2018-Apr-20 17:05N 37°07' W 008°32'0 0.0
2018-Apr-20 16:50N 37°07' W 008°32'0 0.0
2018-Apr-20 16:26N 37°07' W 008°32'0 0.0
2018-Apr-20 15:56N 37°07' W 008°32'0 0.0
2018-Apr-20 15:14N 37°07' W 008°32'0 0.0
2018-Apr-20 14:56N 37°07' W 008°32'0 0.0
2018-Apr-20 14:26N 37°07' W 008°32'0 0.0
2018-Apr-20 08:56N 37°07' W 008°32'0 0.0
2018-Apr-20 08:29N 37°07' W 008°32'0 0.0
2018-Apr-20 06:26N 37°07' W 008°32'0 0.0
2018-Apr-20 05:17N 37°07' W 008°32'0 0.0
2018-Apr-20 04:38N 37°07' W 008°32'0 0.0
2018-Apr-20 02:23N 37°07' W 008°32'0 0.0
2018-Apr-20 01:50N 37°07' W 008°32'0 0.0
2018-Apr-20 01:26N 37°07' W 008°32'0 0.0
2018-Apr-20 00:47N 37°07' W 008°32'0 0.0
2018-Apr-19 12:35N 37°07' W 008°32'0 0.0
2018-Apr-19 09:02N 37°07' W 008°32'0 0.0
2018-Apr-19 03:54N 37°07' W 008°32'0 0.0
2018-Apr-19 03:30N 37°07' W 008°32'0 0.0
2018-Apr-18 23:24N 37°07' W 008°32'  

Dump ship's entire track history